MMTP/TAP METAR and TAF weather

Enter ICAO airport designator
Station Type Date Time Source
MMTP METAR 2022/06/25 21:40 UTC NOAA

MMTP 252140Z 25010KT 8SM FEW030 SCT100 BKN200 31/25 A2982 RMK 8/161 HZY DSNT CB 1 AND 4 QUAD


Station Type Date Time Source
MMTP Decoded METAR 2022/06/25 21:40 UTC NOAA

Tapachula , Mexico (MMTP) 14-47N 092-23W
Jun 25, 2022 - 05:40 PM EDT / 2022.06.25 2140 UTC
Wind: from the WSW (250 degrees) at 12 MPH (10 KT):0
Visibility: 8 mile(s):0
Sky conditions: mostly cloudy
Weather: Cumulonimbus clouds observed
Temperature: 87 F (31 C)
Heat index: 97.5 F (36.4 C):1
Dew Point: 77 F (25 C)
Relative Humidity: 70%
Pressure (altimeter): 29.82 in. Hg (1009 hPa)
ob: MMTP 252140Z 25010KT 8SM FEW030 SCT100 BKN200 31/25 A2982 RMK 8/161 HZY DSNT CB 1 AND 4 QUAD
cycle: 21

Station Type Date Time Source
MMTP TAF 2022/06/25 18:28 UTC NOAA

TAF MMTP 251622Z 2518/2624 22010KT P6SM SCT030 BKN080 BKN250
TEMPO 2601/2605 5SM -RA BKN030CB
FM260600 04007KT P6SM SCT030 BKN080 BKN250
TEMPO 2607/2611 5SM -RA BKN020CB
FM261800 22010KT P6SM SCT030 BKN080 BKN250 PROB40 2622/2624 6SM -RA BKN030

Example: see airport list